DAL919 KATL-KLAS
Flight info
| Callsign | DAL919 |
|---|---|
| Flight time | 4h 11m |
| Altitude | 36000 |
| Route | NASSA2 YAALL J14 LIT MLC PNH GUP HAHAA RKSTR4 |
| Aircraft | A321/M-SDE3FGHIRWY/LB1 |
Departure
| Time | 2026-05-03 22:25 |
|---|---|
| Airport | Hartsfield Jackson Atlanta International Airport (KATL) |
Arrival
| Time | 2026-05-04 02:36 |
|---|---|
| Airport | Harry Reid International Airport (KLAS) |
| Time | Latitude | Longitude | Altitude | Speed | Heading |
|---|---|---|---|---|---|
| 2026-05-03 21:56 | 33.64373 | -84.43209 | 1007 ft | 0 kts | 266° |
| 2026-05-03 22:15 | 33.64374 | -84.43191 | 1006 ft | 4 kts | 264° |
| 2026-05-03 22:15 | 33.64374 | -84.43160 | 1006 ft | 4 kts | 287° |
| 2026-05-03 22:15 | 33.64362 | -84.43134 | 1006 ft | 4 kts | 329° |
| 2026-05-03 22:15 | 33.64346 | -84.43128 | 1006 ft | 1 kts | 356° |
| 2026-05-03 22:16 | 33.64344 | -84.43127 | 1006 ft | 0 kts | 356° |
| 2026-05-03 22:18 | 33.64356 | -84.43128 | 1006 ft | 7 kts | 357° |
| 2026-05-03 22:19 | 33.64444 | -84.43105 | 1007 ft | 19 kts | 40° |
| 2026-05-03 22:19 | 33.64459 | -84.42960 | 1006 ft | 17 kts | 89° |
| 2026-05-03 22:19 | 33.64458 | -84.42867 | 1006 ft | 16 kts | 90° |
| 2026-05-03 22:19 | 33.64467 | -84.42699 | 1006 ft | 14 kts | 87° |
| 2026-05-03 22:20 | 33.64469 | -84.42613 | 1006 ft | 17 kts | 89° |
| 2026-05-03 22:20 | 33.64469 | -84.42459 | 1006 ft | 20 kts | 90° |
| 2026-05-03 22:20 | 33.64470 | -84.42281 | 1006 ft | 22 kts | 85° |
| 2026-05-03 22:20 | 33.64533 | -84.42122 | 1006 ft | 19 kts | 69° |
| 2026-05-03 22:21 | 33.64542 | -84.41967 | 1006 ft | 20 kts | 90° |
| 2026-05-03 22:21 | 33.64542 | -84.41824 | 1006 ft | 14 kts | 90° |
| 2026-05-03 22:21 | 33.64543 | -84.41696 | 1007 ft | 16 kts | 89° |
| 2026-05-03 22:21 | 33.64542 | -84.41549 | 1007 ft | 19 kts | 90° |
| 2026-05-03 22:22 | 33.64542 | -84.41375 | 1007 ft | 22 kts | 90° |
| 2026-05-03 22:22 | 33.64543 | -84.41175 | 1007 ft | 26 kts | 90° |
| 2026-05-03 22:22 | 33.64543 | -84.40985 | 1006 ft | 19 kts | 90° |
| 2026-05-03 22:22 | 33.64548 | -84.40826 | 1006 ft | 21 kts | 76° |
| 2026-05-03 22:23 | 33.64569 | -84.40644 | 1005 ft | 21 kts | 89° |
| 2026-05-03 22:23 | 33.64613 | -84.40570 | 1005 ft | 11 kts | 11° |
| 2026-05-03 22:23 | 33.64676 | -84.40593 | 1004 ft | 9 kts | 297° |
| 2026-05-03 22:23 | 33.64680 | -84.40667 | 1004 ft | 8 kts | 270° |
| 2026-05-03 22:24 | 33.64680 | -84.40759 | 1004 ft | 24 kts | 269° |
| 2026-05-03 22:24 | 33.64679 | -84.41250 | 1008 ft | 91 kts | 270° |
| 2026-05-03 22:24 | 33.64679 | -84.42232 | 1004 ft | 143 kts | 270° |
| 2026-05-03 22:24 | 33.64680 | -84.43562 | 1214 ft | 164 kts | 270° |
| 2026-05-03 22:25 | 33.64675 | -84.44920 | 1936 ft | 163 kts | 269° |
| 2026-05-03 22:25 | 33.64797 | -84.46271 | 2572 ft | 162 kts | 281° |
| 2026-05-03 22:25 | 33.65026 | -84.47623 | 3048 ft | 172 kts | 282° |
| 2026-05-03 22:25 | 33.65296 | -84.49104 | 3274 ft | 190 kts | 283° |
| 2026-05-03 22:26 | 33.65593 | -84.50712 | 3501 ft | 206 kts | 284° |
| 2026-05-03 22:26 | 33.65927 | -84.52467 | 3680 ft | 228 kts | 284° |
| 2026-05-03 22:26 | 33.66311 | -84.54429 | 3910 ft | 251 kts | 284° |
| 2026-05-03 22:26 | 33.66699 | -84.56512 | 4527 ft | 258 kts | 283° |
| 2026-05-03 22:27 | 33.67073 | -84.58635 | 5252 ft | 262 kts | 283° |
| 2026-05-03 22:27 | 33.67435 | -84.60796 | 5954 ft | 266 kts | 282° |
| 2026-05-03 22:27 | 33.67788 | -84.62987 | 6675 ft | 269 kts | 282° |
| 2026-05-03 22:27 | 33.68149 | -84.65192 | 7391 ft | 270 kts | 283° |
| 2026-05-03 22:28 | 33.68533 | -84.67398 | 8108 ft | 271 kts | 283° |
| 2026-05-03 22:28 | 33.68918 | -84.69622 | 8804 ft | 274 kts | 283° |
| 2026-05-03 22:28 | 33.69301 | -84.71870 | 9516 ft | 276 kts | 283° |
| 2026-05-03 22:28 | 33.69684 | -84.74133 | 10189 ft | 278 kts | 282° |
| 2026-05-03 22:29 | 33.69981 | -84.76506 | 10428 ft | 298 kts | 274° |
| 2026-05-03 22:29 | 33.70000 | -84.79052 | 10556 ft | 320 kts | 271° |
| 2026-05-03 22:29 | 33.69991 | -84.81801 | 10787 ft | 336 kts | 271° |
| 2026-05-03 22:29 | 33.69982 | -84.84633 | 11313 ft | 341 kts | 271° |
| 2026-05-03 22:30 | 33.69974 | -84.87501 | 11905 ft | 345 kts | 271° |
| 2026-05-03 22:30 | 33.69967 | -84.90391 | 12535 ft | 347 kts | 271° |
| 2026-05-03 22:30 | 33.69959 | -84.93306 | 13154 ft | 350 kts | 271° |
| 2026-05-03 22:30 | 33.69951 | -84.96240 | 13783 ft | 353 kts | 270° |
| 2026-05-03 22:31 | 33.69943 | -84.99194 | 14352 ft | 355 kts | 270° |
| 2026-05-03 22:31 | 33.69935 | -85.02173 | 14907 ft | 358 kts | 270° |
| 2026-05-03 22:31 | 33.69928 | -85.05170 | 15460 ft | 360 kts | 270° |
| 2026-05-03 22:31 | 33.69921 | -85.08187 | 15989 ft | 363 kts | 270° |
| 2026-05-03 22:32 | 33.69913 | -85.11226 | 16525 ft | 365 kts | 270° |
| 2026-05-03 22:32 | 33.69897 | -85.14292 | 17045 ft | 368 kts | 270° |
| 2026-05-03 22:32 | 33.69877 | -85.17376 | 17563 ft | 370 kts | 270° |
| 2026-05-03 22:32 | 33.69860 | -85.20477 | 18073 ft | 373 kts | 270° |
| 2026-05-03 22:33 | 33.69847 | -85.23603 | 18561 ft | 375 kts | 270° |
| 2026-05-03 22:33 | 33.69826 | -85.26745 | 18991 ft | 377 kts | 270° |
| 2026-05-03 22:33 | 33.69794 | -85.29907 | 19407 ft | 380 kts | 269° |
| 2026-05-03 22:33 | 33.69758 | -85.33085 | 19831 ft | 382 kts | 269° |
| 2026-05-03 22:34 | 33.69720 | -85.36281 | 20249 ft | 384 kts | 269° |
| 2026-05-03 22:34 | 33.69680 | -85.39492 | 20668 ft | 386 kts | 269° |
| 2026-05-03 22:34 | 33.69641 | -85.42727 | 21088 ft | 388 kts | 269° |
| 2026-05-03 22:34 | 33.69603 | -85.45979 | 21478 ft | 391 kts | 269° |
| 2026-05-03 22:35 | 33.69561 | -85.49261 | 21873 ft | 394 kts | 269° |
| 2026-05-03 22:35 | 33.69518 | -85.52563 | 22271 ft | 397 kts | 269° |
| 2026-05-03 22:35 | 33.69473 | -85.55884 | 22668 ft | 399 kts | 269° |
| 2026-05-03 22:35 | 33.69428 | -85.59221 | 23069 ft | 401 kts | 269° |
| 2026-05-03 22:36 | 33.69384 | -85.62581 | 23468 ft | 404 kts | 269° |
| 2026-05-03 22:36 | 33.69339 | -85.65960 | 23836 ft | 406 kts | 269° |
| 2026-05-03 22:36 | 33.69293 | -85.69308 | 24160 ft | 408 kts | 269° |
| 2026-05-03 22:36 | 33.69246 | -85.72725 | 24491 ft | 410 kts | 269° |
| 2026-05-03 22:37 | 33.69199 | -85.76152 | 24824 ft | 411 kts | 269° |
| 2026-05-03 22:37 | 33.69148 | -85.79590 | 25142 ft | 413 kts | 269° |
| 2026-05-03 22:37 | 33.69095 | -85.83048 | 25461 ft | 415 kts | 269° |
| 2026-05-03 22:37 | 33.69038 | -85.86520 | 25780 ft | 417 kts | 269° |
| 2026-05-03 22:38 | 33.68980 | -85.90006 | 26096 ft | 418 kts | 269° |
| 2026-05-03 22:38 | 33.68924 | -85.93509 | 26407 ft | 420 kts | 269° |
| 2026-05-03 22:38 | 33.68870 | -85.97028 | 26715 ft | 422 kts | 269° |
| 2026-05-03 22:38 | 33.68817 | -86.00555 | 27031 ft | 424 kts | 269° |
| 2026-05-03 22:39 | 33.68780 | -86.04098 | 27325 ft | 425 kts | 272° |
| 2026-05-03 22:39 | 33.69015 | -86.07641 | 27610 ft | 426 kts | 276° |
| 2026-05-03 22:39 | 33.69295 | -86.11189 | 27892 ft | 428 kts | 276° |
| 2026-05-03 22:39 | 33.69575 | -86.14753 | 28167 ft | 430 kts | 276° |
| 2026-05-03 22:40 | 33.69856 | -86.18337 | 28438 ft | 431 kts | 276° |
| 2026-05-03 22:40 | 33.70139 | -86.21934 | 28658 ft | 434 kts | 276° |
| 2026-05-03 22:40 | 33.70424 | -86.25554 | 28904 ft | 436 kts | 276° |
| 2026-05-03 22:40 | 33.70708 | -86.29191 | 29165 ft | 438 kts | 276° |
| 2026-05-03 22:41 | 33.70992 | -86.32843 | 29437 ft | 440 kts | 276° |
| 2026-05-03 22:41 | 33.71276 | -86.36503 | 29754 ft | 440 kts | 276° |
| 2026-05-03 22:41 | 33.71558 | -86.40159 | 30132 ft | 439 kts | 276° |
| 2026-05-03 22:41 | 33.71837 | -86.43812 | 30453 ft | 438 kts | 276° |
| 2026-05-03 22:42 | 33.72109 | -86.47408 | 30772 ft | 437 kts | 276° |
| 2026-05-03 22:42 | 33.72382 | -86.51036 | 31118 ft | 435 kts | 276° |
| 2026-05-03 22:42 | 33.72653 | -86.54647 | 31458 ft | 434 kts | 276° |
| 2026-05-03 22:42 | 33.72925 | -86.58254 | 31796 ft | 432 kts | 276° |
| 2026-05-03 22:43 | 33.73190 | -86.61851 | 32060 ft | 432 kts | 276° |
| 2026-05-03 22:43 | 33.73450 | -86.65447 | 32338 ft | 432 kts | 276° |
| 2026-05-03 22:43 | 33.73716 | -86.69034 | 32643 ft | 431 kts | 276° |
| 2026-05-03 22:43 | 33.73985 | -86.72613 | 32956 ft | 430 kts | 276° |
| 2026-05-03 22:44 | 33.74255 | -86.76187 | 33300 ft | 428 kts | 276° |
| 2026-05-03 22:44 | 33.74522 | -86.79746 | 33622 ft | 427 kts | 276° |
| 2026-05-03 22:44 | 33.74787 | -86.83297 | 33946 ft | 426 kts | 276° |
| 2026-05-03 22:44 | 33.75046 | -86.86837 | 34239 ft | 425 kts | 276° |
| 2026-05-03 22:45 | 33.75300 | -86.90372 | 34518 ft | 423 kts | 275° |
| 2026-05-03 22:45 | 33.75552 | -86.93888 | 34772 ft | 422 kts | 275° |
| 2026-05-03 22:45 | 33.75801 | -86.97399 | 34984 ft | 421 kts | 276° |
| 2026-05-03 22:45 | 33.76049 | -87.00903 | 35179 ft | 421 kts | 276° |
| 2026-05-03 22:46 | 33.76299 | -87.04413 | 35407 ft | 421 kts | 276° |
| 2026-05-03 22:46 | 33.76549 | -87.07906 | 35649 ft | 419 kts | 275° |
| 2026-05-03 22:46 | 33.76795 | -87.11346 | 35872 ft | 418 kts | 275° |
| 2026-05-03 22:46 | 33.77042 | -87.14824 | 36063 ft | 418 kts | 275° |
| 2026-05-03 22:47 | 33.77288 | -87.18295 | 36117 ft | 416 kts | 275° |
| 2026-05-03 22:47 | 33.77770 | -87.25207 | 36134 ft | 414 kts | 275° |
| 2026-05-03 22:48 | 33.78248 | -87.32109 | 36135 ft | 414 kts | 275° |
| 2026-05-03 22:48 | 33.78716 | -87.39014 | 36134 ft | 414 kts | 275° |
| 2026-05-03 22:49 | 33.79176 | -87.45923 | 36130 ft | 414 kts | 276° |
| 2026-05-03 22:49 | 33.80305 | -87.52690 | 36126 ft | 413 kts | 284° |
| 2026-05-03 22:50 | 33.81716 | -87.59396 | 36125 ft | 414 kts | 284° |
| 2026-05-03 22:50 | 33.83108 | -87.66114 | 36123 ft | 414 kts | 284° |
| 2026-05-03 22:51 | 33.84499 | -87.72835 | 36124 ft | 414 kts | 284° |
| 2026-05-03 22:51 | 33.85875 | -87.79511 | 36132 ft | 414 kts | 284° |
| 2026-05-03 22:52 | 33.87258 | -87.86224 | 36132 ft | 413 kts | 284° |
| 2026-05-03 22:52 | 33.88637 | -87.92928 | 36134 ft | 413 kts | 284° |
| 2026-05-03 22:53 | 33.90015 | -87.99631 | 36136 ft | 412 kts | 284° |
| 2026-05-03 22:53 | 33.91383 | -88.06338 | 36134 ft | 412 kts | 284° |
| 2026-05-03 22:54 | 33.92742 | -88.13036 | 36123 ft | 412 kts | 284° |
| 2026-05-03 22:54 | 33.94104 | -88.19731 | 36148 ft | 411 kts | 284° |
| 2026-05-03 22:55 | 33.95461 | -88.26414 | 36141 ft | 410 kts | 284° |
| 2026-05-03 22:55 | 33.96804 | -88.33047 | 36137 ft | 410 kts | 284° |
| 2026-05-03 22:56 | 33.98154 | -88.39718 | 36130 ft | 409 kts | 284° |
| 2026-05-03 22:56 | 33.99492 | -88.46386 | 36128 ft | 409 kts | 284° |
| 2026-05-03 22:57 | 34.00821 | -88.53054 | 36128 ft | 409 kts | 284° |
| 2026-05-03 22:57 | 34.02148 | -88.59720 | 36131 ft | 409 kts | 284° |
| 2026-05-03 22:58 | 34.03476 | -88.66384 | 36137 ft | 409 kts | 284° |
| 2026-05-03 22:58 | 34.04801 | -88.73058 | 36137 ft | 409 kts | 284° |
| 2026-05-03 22:59 | 34.06116 | -88.79728 | 36138 ft | 409 kts | 284° |
| 2026-05-03 22:59 | 34.07434 | -88.86406 | 36129 ft | 409 kts | 284° |
| 2026-05-03 23:00 | 34.08736 | -88.93032 | 36137 ft | 408 kts | 284° |
| 2026-05-03 23:00 | 34.10050 | -88.99745 | 36143 ft | 408 kts | 284° |
| 2026-05-03 23:01 | 34.11342 | -89.06373 | 36150 ft | 408 kts | 284° |
| 2026-05-03 23:01 | 34.12642 | -89.13049 | 36146 ft | 408 kts | 284° |
| 2026-05-03 23:02 | 34.13941 | -89.19716 | 36147 ft | 408 kts | 284° |
| 2026-05-03 23:02 | 34.15232 | -89.26389 | 36138 ft | 408 kts | 285° |
| 2026-05-03 23:03 | 34.16517 | -89.33052 | 36147 ft | 407 kts | 285° |
| 2026-05-03 23:03 | 34.17799 | -89.39701 | 36147 ft | 406 kts | 285° |
| 2026-05-03 23:04 | 34.19072 | -89.46355 | 36145 ft | 406 kts | 285° |
| 2026-05-03 23:04 | 34.20339 | -89.52990 | 36143 ft | 405 kts | 285° |
| 2026-05-03 23:05 | 34.21832 | -89.59490 | 36161 ft | 404 kts | 288° |
| 2026-05-03 23:05 | 34.23487 | -89.65976 | 36155 ft | 403 kts | 288° |
| 2026-05-03 23:06 | 34.25108 | -89.72465 | 36130 ft | 403 kts | 288° |
| 2026-05-03 23:06 | 34.26415 | -89.77867 | 36123 ft | 402 kts | 288° |
| 2026-05-03 23:07 | 34.27971 | -89.84362 | 36116 ft | 402 kts | 288° |
| 2026-05-03 23:07 | 34.29529 | -89.90853 | 36113 ft | 402 kts | 288° |
| 2026-05-03 23:08 | 34.31086 | -89.97344 | 36110 ft | 402 kts | 288° |
| 2026-05-03 23:08 | 34.32633 | -90.03829 | 36103 ft | 399 kts | 288° |
| 2026-05-03 23:09 | 34.34160 | -90.10281 | 36125 ft | 399 kts | 288° |
| 2026-05-03 23:09 | 34.35709 | -90.16731 | 36127 ft | 398 kts | 288° |
| 2026-05-03 23:10 | 34.37246 | -90.23172 | 36124 ft | 398 kts | 288° |
| 2026-05-03 23:10 | 34.38766 | -90.29606 | 36122 ft | 397 kts | 288° |
| 2026-05-03 23:11 | 34.40280 | -90.36036 | 36119 ft | 397 kts | 288° |
| 2026-05-03 23:11 | 34.41791 | -90.42456 | 36109 ft | 396 kts | 288° |
| 2026-05-03 23:12 | 34.43287 | -90.48822 | 36110 ft | 395 kts | 288° |
| 2026-05-03 23:12 | 34.44784 | -90.55225 | 36112 ft | 395 kts | 288° |
| 2026-05-03 23:13 | 34.46282 | -90.61631 | 36113 ft | 394 kts | 288° |
| 2026-05-03 23:13 | 34.47769 | -90.68026 | 36126 ft | 394 kts | 288° |
| 2026-05-03 23:14 | 34.49259 | -90.74411 | 36120 ft | 394 kts | 288° |
| 2026-05-03 23:14 | 34.50743 | -90.80802 | 36106 ft | 393 kts | 288° |
| 2026-05-03 23:15 | 34.52217 | -90.87184 | 36109 ft | 393 kts | 288° |
| 2026-05-03 23:15 | 34.53680 | -90.93562 | 36105 ft | 393 kts | 288° |
| 2026-05-03 23:16 | 34.55141 | -90.99904 | 36103 ft | 392 kts | 288° |
| 2026-05-03 23:16 | 34.56608 | -91.06277 | 36104 ft | 392 kts | 288° |
| 2026-05-03 23:17 | 34.58071 | -91.12655 | 36105 ft | 392 kts | 288° |
| 2026-05-03 23:17 | 34.59523 | -91.19035 | 36092 ft | 392 kts | 288° |
| 2026-05-03 23:18 | 34.60976 | -91.25419 | 36096 ft | 392 kts | 288° |
| 2026-05-03 23:18 | 34.62421 | -91.31788 | 36094 ft | 391 kts | 288° |
| 2026-05-03 23:19 | 34.63862 | -91.38165 | 36088 ft | 391 kts | 288° |
| 2026-05-03 23:19 | 34.65294 | -91.44489 | 36086 ft | 391 kts | 288° |
| 2026-05-03 23:20 | 34.66729 | -91.50859 | 36085 ft | 391 kts | 288° |
| 2026-05-03 23:20 | 34.68163 | -91.57232 | 36071 ft | 391 kts | 288° |
| 2026-05-03 23:21 | 34.69588 | -91.63604 | 36077 ft | 390 kts | 287° |
| 2026-05-03 23:21 | 34.71012 | -91.69971 | 36082 ft | 390 kts | 288° |
| 2026-05-03 23:22 | 34.73141 | -91.79515 | 36101 ft | 390 kts | 287° |
| 2026-05-03 23:22 | 34.74553 | -91.85870 | 36096 ft | 389 kts | 287° |
| 2026-05-03 23:23 | 34.75958 | -91.92222 | 36055 ft | 389 kts | 287° |
| 2026-05-03 23:23 | 34.77348 | -91.98532 | 36053 ft | 388 kts | 287° |
| 2026-05-03 23:24 | 34.78745 | -92.04881 | 36049 ft | 388 kts | 287° |
| 2026-05-03 23:24 | 34.80140 | -92.11224 | 36056 ft | 388 kts | 287° |
| 2026-05-03 23:25 | 34.81081 | -92.17701 | 36049 ft | 392 kts | 275° |
| 2026-05-03 23:25 | 34.81229 | -92.24340 | 36054 ft | 392 kts | 275° |
| 2026-05-03 23:26 | 34.81400 | -92.30936 | 36029 ft | 392 kts | 275° |
| 2026-05-03 23:26 | 34.81566 | -92.37572 | 36039 ft | 392 kts | 275° |
| 2026-05-03 23:27 | 34.81720 | -92.44209 | 36045 ft | 392 kts | 275° |
| 2026-05-03 23:27 | 34.81866 | -92.50847 | 36037 ft | 392 kts | 275° |
| 2026-05-03 23:28 | 34.82023 | -92.57481 | 36041 ft | 392 kts | 275° |
| 2026-05-03 23:28 | 34.82171 | -92.64120 | 36042 ft | 392 kts | 275° |
| 2026-05-03 23:29 | 34.82309 | -92.70753 | 36028 ft | 392 kts | 275° |
| 2026-05-03 23:29 | 34.82451 | -92.77379 | 36027 ft | 391 kts | 275° |
| 2026-05-03 23:30 | 34.82587 | -92.84011 | 36031 ft | 392 kts | 275° |
| 2026-05-03 23:30 | 34.82718 | -92.90636 | 36034 ft | 391 kts | 275° |
| 2026-05-03 23:31 | 34.82844 | -92.97218 | 36040 ft | 391 kts | 275° |
| 2026-05-03 23:31 | 34.82972 | -93.03840 | 36039 ft | 391 kts | 275° |
| 2026-05-03 23:32 | 34.83092 | -93.10463 | 36028 ft | 391 kts | 275° |
| 2026-05-03 23:32 | 34.83203 | -93.17087 | 36033 ft | 391 kts | 275° |
| 2026-05-03 23:33 | 34.83315 | -93.23708 | 36016 ft | 392 kts | 275° |
| 2026-05-03 23:33 | 34.83424 | -93.30342 | 36019 ft | 392 kts | 275° |
| 2026-05-03 23:34 | 34.83531 | -93.36982 | 36031 ft | 392 kts | 275° |
| 2026-05-03 23:34 | 34.83638 | -93.43627 | 36031 ft | 392 kts | 275° |
| 2026-05-03 23:35 | 34.83735 | -93.50257 | 36023 ft | 392 kts | 275° |
| 2026-05-03 23:35 | 34.83827 | -93.56889 | 36024 ft | 392 kts | 274° |
| 2026-05-03 23:36 | 34.83914 | -93.63481 | 36025 ft | 392 kts | 274° |
| 2026-05-03 23:36 | 34.84006 | -93.70117 | 36025 ft | 392 kts | 274° |
| 2026-05-03 23:37 | 34.84090 | -93.76752 | 36027 ft | 392 kts | 274° |
| 2026-05-03 23:37 | 34.84171 | -93.83385 | 36008 ft | 391 kts | 274° |
| 2026-05-03 23:38 | 34.84250 | -93.90013 | 36011 ft | 391 kts | 274° |
| 2026-05-03 23:38 | 34.84324 | -93.96584 | 36016 ft | 391 kts | 274° |
| 2026-05-03 23:39 | 34.84397 | -94.03190 | 36020 ft | 390 kts | 274° |
| 2026-05-03 23:39 | 34.84465 | -94.09802 | 36023 ft | 391 kts | 274° |
| 2026-05-03 23:40 | 34.84523 | -94.16417 | 36026 ft | 391 kts | 274° |
| 2026-05-03 23:40 | 34.84583 | -94.23029 | 36022 ft | 390 kts | 274° |
| 2026-05-03 23:41 | 34.84643 | -94.29628 | 36024 ft | 390 kts | 274° |
| 2026-05-03 23:41 | 34.84690 | -94.36229 | 36023 ft | 389 kts | 274° |
| 2026-05-03 23:42 | 34.84732 | -94.42772 | 36024 ft | 389 kts | 274° |
| 2026-05-03 23:42 | 34.84780 | -94.49357 | 36024 ft | 389 kts | 274° |
| 2026-05-03 23:43 | 34.84826 | -94.55936 | 36022 ft | 389 kts | 274° |
| 2026-05-03 23:43 | 34.84865 | -94.62510 | 36013 ft | 388 kts | 274° |
| 2026-05-03 23:44 | 34.84895 | -94.69080 | 36020 ft | 387 kts | 274° |
| 2026-05-03 23:44 | 34.84928 | -94.75633 | 36019 ft | 387 kts | 274° |
| 2026-05-03 23:45 | 34.84958 | -94.82174 | 36020 ft | 386 kts | 274° |
| 2026-05-03 23:45 | 34.84977 | -94.88717 | 36016 ft | 386 kts | 274° |
| 2026-05-03 23:46 | 34.85004 | -94.95250 | 36013 ft | 386 kts | 274° |
| 2026-05-03 23:46 | 34.85021 | -95.01780 | 36013 ft | 385 kts | 274° |
| 2026-05-03 23:47 | 34.85028 | -95.08294 | 36009 ft | 385 kts | 274° |
| 2026-05-03 23:47 | 34.85037 | -95.14809 | 36018 ft | 384 kts | 274° |
| 2026-05-03 23:48 | 34.85043 | -95.21317 | 36017 ft | 384 kts | 274° |
| 2026-05-03 23:48 | 34.85048 | -95.27767 | 36016 ft | 383 kts | 274° |
| 2026-05-03 23:49 | 34.85047 | -95.34258 | 35991 ft | 383 kts | 274° |
| 2026-05-03 23:49 | 34.85037 | -95.40740 | 36015 ft | 382 kts | 274° |
| 2026-05-03 23:50 | 34.85035 | -95.46116 | 36017 ft | 381 kts | 274° |
| 2026-05-03 23:50 | 34.85028 | -95.53663 | 36017 ft | 381 kts | 274° |
| 2026-05-03 23:51 | 34.85009 | -95.60102 | 36018 ft | 380 kts | 274° |
| 2026-05-03 23:51 | 34.84986 | -95.66547 | 36036 ft | 380 kts | 274° |
| 2026-05-03 23:52 | 34.84967 | -95.72985 | 36028 ft | 380 kts | 274° |
| 2026-05-03 23:52 | 34.85046 | -95.79401 | 36040 ft | 376 kts | 279° |
| 2026-05-03 23:53 | 34.85610 | -95.85683 | 36064 ft | 376 kts | 279° |
| 2026-05-03 23:53 | 34.86172 | -95.92001 | 36054 ft | 375 kts | 279° |
| 2026-05-03 23:54 | 34.86730 | -95.98322 | 36040 ft | 375 kts | 279° |
| 2026-05-03 23:54 | 34.87288 | -96.04644 | 36031 ft | 375 kts | 279° |
| 2026-05-03 23:55 | 34.87839 | -96.10965 | 36011 ft | 375 kts | 279° |
| 2026-05-03 23:55 | 34.88291 | -96.16204 | 36014 ft | 374 kts | 279° |
| 2026-05-03 23:56 | 34.88836 | -96.22491 | 36008 ft | 373 kts | 279° |
| 2026-05-03 23:56 | 34.89376 | -96.28777 | 36010 ft | 373 kts | 279° |
| 2026-05-03 23:57 | 34.89913 | -96.35053 | 36009 ft | 372 kts | 279° |
| 2026-05-03 23:57 | 34.90445 | -96.41330 | 36013 ft | 372 kts | 279° |
| 2026-05-03 23:58 | 34.90969 | -96.47596 | 35999 ft | 372 kts | 279° |
| 2026-05-03 23:58 | 34.91491 | -96.53856 | 36011 ft | 371 kts | 279° |
| 2026-05-03 23:59 | 34.92012 | -96.60097 | 36034 ft | 370 kts | 279° |
| 2026-05-03 23:59 | 34.92532 | -96.66336 | 36036 ft | 370 kts | 279° |
| 2026-05-04 00:00 | 34.93047 | -96.72570 | 36035 ft | 369 kts | 279° |
| 2026-05-04 00:00 | 34.93549 | -96.78756 | 36032 ft | 369 kts | 279° |
| 2026-05-04 00:01 | 34.94051 | -96.84981 | 36013 ft | 369 kts | 279° |
| 2026-05-04 00:01 | 34.94551 | -96.91202 | 36017 ft | 368 kts | 279° |
| 2026-05-04 00:02 | 34.95053 | -96.97405 | 36019 ft | 368 kts | 279° |
| 2026-05-04 00:02 | 34.95549 | -97.03606 | 36029 ft | 367 kts | 279° |
| 2026-05-04 00:03 | 34.96038 | -97.09794 | 36032 ft | 367 kts | 278° |
| 2026-05-04 00:03 | 34.96524 | -97.15979 | 36030 ft | 366 kts | 278° |
| 2026-05-04 00:04 | 34.97005 | -97.22160 | 36026 ft | 366 kts | 279° |
| 2026-05-04 00:04 | 34.97490 | -97.28339 | 36024 ft | 366 kts | 278° |
| 2026-05-04 00:05 | 34.97963 | -97.34518 | 36019 ft | 366 kts | 278° |
| 2026-05-04 00:05 | 34.98432 | -97.40659 | 36011 ft | 366 kts | 278° |
| 2026-05-04 00:06 | 34.98901 | -97.46835 | 36002 ft | 366 kts | 278° |
| 2026-05-04 00:06 | 34.99370 | -97.53021 | 36001 ft | 366 kts | 278° |
| 2026-05-04 00:07 | 34.99834 | -97.59201 | 35984 ft | 366 kts | 278° |
| 2026-05-04 00:07 | 35.00288 | -97.65380 | 35998 ft | 365 kts | 278° |
| 2026-05-04 00:08 | 35.00746 | -97.71544 | 36023 ft | 365 kts | 278° |
| 2026-05-04 00:08 | 35.01199 | -97.77712 | 36006 ft | 365 kts | 278° |
| 2026-05-04 00:09 | 35.01653 | -97.83894 | 35998 ft | 366 kts | 278° |
| 2026-05-04 00:09 | 35.02101 | -97.90077 | 35980 ft | 366 kts | 278° |
| 2026-05-04 00:10 | 35.02543 | -97.96226 | 35974 ft | 366 kts | 278° |
| 2026-05-04 00:10 | 35.02981 | -98.02410 | 35964 ft | 365 kts | 278° |
| 2026-05-04 00:11 | 35.03417 | -98.08573 | 35956 ft | 364 kts | 278° |
| 2026-05-04 00:11 | 35.03847 | -98.14718 | 35958 ft | 363 kts | 278° |
| 2026-05-04 00:12 | 35.04275 | -98.20848 | 35954 ft | 362 kts | 278° |
| 2026-05-04 00:12 | 35.04698 | -98.26978 | 35952 ft | 362 kts | 278° |
| 2026-05-04 00:13 | 35.05123 | -98.33104 | 35947 ft | 362 kts | 278° |
| 2026-05-04 00:13 | 35.05543 | -98.39230 | 35940 ft | 362 kts | 278° |
| 2026-05-04 00:14 | 35.05959 | -98.45342 | 35946 ft | 361 kts | 278° |
| 2026-05-04 00:14 | 35.06366 | -98.51446 | 35950 ft | 361 kts | 277° |
| 2026-05-04 00:15 | 35.06774 | -98.57546 | 35950 ft | 360 kts | 278° |
| 2026-05-04 00:15 | 35.07181 | -98.63605 | 35953 ft | 360 kts | 277° |
| 2026-05-04 00:16 | 35.07579 | -98.69706 | 35964 ft | 360 kts | 277° |
| 2026-05-04 00:16 | 35.07975 | -98.75794 | 35956 ft | 359 kts | 277° |
| 2026-05-04 00:17 | 35.08367 | -98.81875 | 35963 ft | 359 kts | 277° |
| 2026-05-04 00:17 | 35.08762 | -98.87944 | 35968 ft | 358 kts | 277° |
| 2026-05-04 00:18 | 35.09150 | -98.94005 | 35970 ft | 358 kts | 277° |
| 2026-05-04 00:18 | 35.09530 | -99.00071 | 35975 ft | 358 kts | 277° |
| 2026-05-04 00:19 | 35.09908 | -99.06134 | 35979 ft | 358 kts | 277° |
| 2026-05-04 00:19 | 35.10278 | -99.12194 | 35953 ft | 357 kts | 277° |
| 2026-05-04 00:20 | 35.10647 | -99.18199 | 35955 ft | 357 kts | 277° |
| 2026-05-04 00:20 | 35.11025 | -99.24242 | 35951 ft | 357 kts | 277° |
| 2026-05-04 00:21 | 35.11394 | -99.30279 | 35948 ft | 357 kts | 277° |
| 2026-05-04 00:21 | 35.11756 | -99.36319 | 35942 ft | 356 kts | 277° |
| 2026-05-04 00:22 | 35.12115 | -99.42357 | 35935 ft | 356 kts | 277° |
| 2026-05-04 00:22 | 35.12468 | -99.48399 | 35924 ft | 357 kts | 277° |
| 2026-05-04 00:23 | 35.12825 | -99.54445 | 35954 ft | 357 kts | 277° |
| 2026-05-04 00:23 | 35.13181 | -99.60501 | 35949 ft | 357 kts | 277° |
| 2026-05-04 00:24 | 35.13531 | -99.66521 | 35944 ft | 357 kts | 277° |
| 2026-05-04 00:24 | 35.13879 | -99.72567 | 35933 ft | 357 kts | 276° |
| 2026-05-04 00:25 | 35.14220 | -99.78616 | 35932 ft | 356 kts | 276° |
| 2026-05-04 00:25 | 35.14557 | -99.84653 | 35911 ft | 356 kts | 276° |
| 2026-05-04 00:26 | 35.14892 | -99.90695 | 35907 ft | 356 kts | 276° |
| 2026-05-04 00:26 | 35.15221 | -99.96736 | 35907 ft | 356 kts | 276° |
| 2026-05-04 00:27 | 35.15557 | -100.02773 | 35902 ft | 356 kts | 276° |
| 2026-05-04 00:27 | 35.15890 | -100.08814 | 35900 ft | 356 kts | 276° |
| 2026-05-04 00:28 | 35.16217 | -100.14851 | 35896 ft | 356 kts | 276° |
| 2026-05-04 00:28 | 35.16537 | -100.20888 | 35877 ft | 356 kts | 276° |
| 2026-05-04 00:29 | 35.16850 | -100.26887 | 35881 ft | 356 kts | 276° |
| 2026-05-04 00:29 | 35.17168 | -100.32935 | 35883 ft | 356 kts | 276° |
| 2026-05-04 00:30 | 35.17483 | -100.38979 | 35888 ft | 356 kts | 276° |
| 2026-05-04 00:30 | 35.17791 | -100.45031 | 35886 ft | 357 kts | 276° |
| 2026-05-04 00:31 | 35.18099 | -100.51090 | 35891 ft | 357 kts | 276° |
| 2026-05-04 00:31 | 35.18406 | -100.57143 | 35895 ft | 357 kts | 276° |
| 2026-05-04 00:32 | 35.18704 | -100.63200 | 35866 ft | 357 kts | 276° |
| 2026-05-04 00:32 | 35.18999 | -100.69269 | 35871 ft | 357 kts | 276° |
| 2026-05-04 00:33 | 35.19438 | -100.78337 | 35879 ft | 358 kts | 276° |
| 2026-05-04 00:34 | 35.19733 | -100.84417 | 35884 ft | 358 kts | 276° |
| 2026-05-04 00:34 | 35.20019 | -100.90503 | 35896 ft | 359 kts | 275° |
| 2026-05-04 00:35 | 35.20298 | -100.96593 | 35889 ft | 359 kts | 276° |
| 2026-05-04 00:35 | 35.20585 | -101.02678 | 35890 ft | 358 kts | 276° |
| 2026-05-04 00:36 | 35.20869 | -101.08763 | 35904 ft | 358 kts | 276° |
| 2026-05-04 00:36 | 35.21149 | -101.14846 | 35891 ft | 358 kts | 275° |
| 2026-05-04 00:37 | 35.21421 | -101.20930 | 35890 ft | 358 kts | 275° |
| 2026-05-04 00:37 | 35.21688 | -101.27015 | 35900 ft | 358 kts | 275° |
| 2026-05-04 00:38 | 35.21955 | -101.33105 | 35904 ft | 359 kts | 275° |
| 2026-05-04 00:38 | 35.22213 | -101.39163 | 35957 ft | 359 kts | 275° |
| 2026-05-04 00:39 | 35.22504 | -101.45252 | 35969 ft | 358 kts | 276° |
| 2026-05-04 00:39 | 35.22904 | -101.51327 | 35990 ft | 358 kts | 277° |
| 2026-05-04 00:40 | 35.23318 | -101.57403 | 36011 ft | 358 kts | 276° |
| 2026-05-04 00:40 | 35.23717 | -101.63474 | 36017 ft | 358 kts | 276° |
| 2026-05-04 00:41 | 35.24102 | -101.69544 | 35999 ft | 358 kts | 276° |
| 2026-05-04 00:41 | 35.24487 | -101.75616 | 36003 ft | 358 kts | 276° |
| 2026-05-04 00:42 | 35.24861 | -101.81688 | 36004 ft | 358 kts | 276° |
| 2026-05-04 00:42 | 35.25232 | -101.87763 | 35992 ft | 358 kts | 276° |
| 2026-05-04 00:43 | 35.25609 | -101.93830 | 35969 ft | 358 kts | 276° |
| 2026-05-04 00:43 | 35.25980 | -101.99899 | 35943 ft | 358 kts | 276° |
| 2026-05-04 00:44 | 35.26285 | -102.04942 | 35914 ft | 358 kts | 276° |
| 2026-05-04 00:44 | 35.26703 | -102.11996 | 35884 ft | 357 kts | 276° |
| 2026-05-04 00:45 | 35.27063 | -102.18062 | 35878 ft | 357 kts | 276° |
| 2026-05-04 00:45 | 35.27367 | -102.23140 | 35881 ft | 357 kts | 276° |
| 2026-05-04 00:46 | 35.27723 | -102.29205 | 35887 ft | 357 kts | 276° |
| 2026-05-04 00:46 | 35.28078 | -102.35270 | 35893 ft | 357 kts | 276° |
| 2026-05-04 00:47 | 35.28430 | -102.41341 | 35874 ft | 358 kts | 276° |
| 2026-05-04 00:47 | 35.28772 | -102.47420 | 35893 ft | 358 kts | 276° |
| 2026-05-04 00:48 | 35.29113 | -102.53503 | 35887 ft | 358 kts | 275° |
| 2026-05-04 00:48 | 35.29455 | -102.59587 | 35882 ft | 359 kts | 276° |
| 2026-05-04 00:49 | 35.29797 | -102.65680 | 35893 ft | 359 kts | 275° |
| 2026-05-04 00:49 | 35.30134 | -102.71774 | 35895 ft | 359 kts | 275° |
| 2026-05-04 00:50 | 35.30461 | -102.77833 | 35879 ft | 359 kts | 275° |
| 2026-05-04 00:50 | 35.30788 | -102.83939 | 35891 ft | 359 kts | 275° |
| 2026-05-04 00:51 | 35.31118 | -102.90038 | 35887 ft | 359 kts | 275° |
| 2026-05-04 00:51 | 35.31442 | -102.96145 | 35887 ft | 359 kts | 275° |
| 2026-05-04 00:52 | 35.31761 | -103.02246 | 35887 ft | 359 kts | 275° |
| 2026-05-04 00:52 | 35.32074 | -103.08343 | 35877 ft | 359 kts | 275° |
| 2026-05-04 00:53 | 35.32384 | -103.14439 | 35852 ft | 359 kts | 275° |
| 2026-05-04 00:53 | 35.32693 | -103.20533 | 35855 ft | 359 kts | 275° |
| 2026-05-04 00:54 | 35.33001 | -103.26644 | 35859 ft | 360 kts | 275° |
| 2026-05-04 00:54 | 35.33308 | -103.32722 | 35883 ft | 360 kts | 275° |
| 2026-05-04 00:55 | 35.33616 | -103.38841 | 35897 ft | 360 kts | 275° |
| 2026-05-04 00:55 | 35.33917 | -103.44969 | 35915 ft | 360 kts | 275° |
| 2026-05-04 00:56 | 35.34207 | -103.51097 | 35898 ft | 360 kts | 275° |
| 2026-05-04 00:56 | 35.34495 | -103.57236 | 35909 ft | 362 kts | 275° |
| 2026-05-04 00:57 | 35.34788 | -103.63397 | 35912 ft | 363 kts | 275° |
| 2026-05-04 00:57 | 35.35081 | -103.69565 | 35906 ft | 363 kts | 275° |
| 2026-05-04 00:58 | 35.35369 | -103.75741 | 35898 ft | 363 kts | 274° |
| 2026-05-04 00:58 | 35.35655 | -103.81921 | 35878 ft | 363 kts | 274° |
| 2026-05-04 00:59 | 35.35934 | -103.88102 | 35875 ft | 363 kts | 274° |
| 2026-05-04 00:59 | 35.36213 | -103.94282 | 35851 ft | 363 kts | 274° |
| 2026-05-04 01:00 | 35.36486 | -104.00455 | 35834 ft | 363 kts | 274° |
| 2026-05-04 01:00 | 35.36758 | -104.06621 | 35834 ft | 362 kts | 274° |
| 2026-05-04 01:01 | 35.37026 | -104.12780 | 35826 ft | 362 kts | 274° |
| 2026-05-04 01:01 | 35.37284 | -104.18933 | 35822 ft | 362 kts | 274° |
| 2026-05-04 01:02 | 35.37542 | -104.25090 | 35802 ft | 362 kts | 274° |
| 2026-05-04 01:02 | 35.37800 | -104.31217 | 35802 ft | 362 kts | 274° |
| 2026-05-04 01:03 | 35.38055 | -104.37386 | 35806 ft | 363 kts | 274° |
| 2026-05-04 01:03 | 35.38304 | -104.43566 | 35836 ft | 363 kts | 274° |
| 2026-05-04 01:04 | 35.38553 | -104.49736 | 35836 ft | 362 kts | 274° |
| 2026-05-04 01:04 | 35.38803 | -104.55881 | 35836 ft | 361 kts | 274° |
| 2026-05-04 01:05 | 35.39048 | -104.62024 | 35830 ft | 360 kts | 274° |
| 2026-05-04 01:05 | 35.39287 | -104.68160 | 35833 ft | 360 kts | 274° |
| 2026-05-04 01:06 | 35.39518 | -104.74291 | 35832 ft | 360 kts | 274° |
| 2026-05-04 01:06 | 35.39747 | -104.80421 | 35829 ft | 360 kts | 274° |
| 2026-05-04 01:07 | 35.39970 | -104.86547 | 35823 ft | 360 kts | 274° |
| 2026-05-04 01:07 | 35.40192 | -104.92669 | 35819 ft | 360 kts | 274° |
| 2026-05-04 01:08 | 35.40415 | -104.98801 | 35821 ft | 360 kts | 274° |
| 2026-05-04 01:08 | 35.40642 | -105.04948 | 35909 ft | 362 kts | 274° |
| 2026-05-04 01:09 | 35.40865 | -105.11118 | 35936 ft | 362 kts | 274° |
| 2026-05-04 01:09 | 35.41071 | -105.17288 | 35942 ft | 362 kts | 273° |
| 2026-05-04 01:10 | 35.41274 | -105.23464 | 35955 ft | 363 kts | 274° |
| 2026-05-04 01:10 | 35.41483 | -105.29597 | 35929 ft | 362 kts | 273° |
| 2026-05-04 01:11 | 35.41688 | -105.35785 | 35914 ft | 364 kts | 273° |
| 2026-05-04 01:11 | 35.41891 | -105.41985 | 35923 ft | 364 kts | 273° |
| 2026-05-04 01:12 | 35.42088 | -105.48200 | 35907 ft | 365 kts | 273° |
| 2026-05-04 01:12 | 35.42287 | -105.54416 | 35926 ft | 365 kts | 273° |
| 2026-05-04 01:13 | 35.42481 | -105.60643 | 35928 ft | 365 kts | 273° |
| 2026-05-04 01:13 | 35.42668 | -105.66872 | 35925 ft | 366 kts | 273° |
| 2026-05-04 01:14 | 35.42854 | -105.73106 | 35929 ft | 366 kts | 273° |
| 2026-05-04 01:14 | 35.43039 | -105.79343 | 35933 ft | 366 kts | 273° |
| 2026-05-04 01:15 | 35.43221 | -105.85593 | 35941 ft | 367 kts | 273° |
| 2026-05-04 01:15 | 35.43401 | -105.91848 | 35944 ft | 367 kts | 273° |
| 2026-05-04 01:15 | 35.43489 | -105.94971 | 36047 ft | 367 kts | 273° |
| 2026-05-04 01:16 | 35.43576 | -105.98094 | 36051 ft | 366 kts | 273° |
| 2026-05-04 01:16 | 35.43749 | -106.04331 | 36058 ft | 365 kts | 273° |
| 2026-05-04 01:17 | 35.43917 | -106.10503 | 36054 ft | 364 kts | 273° |
| 2026-05-04 01:17 | 35.44081 | -106.16703 | 36045 ft | 363 kts | 273° |
| 2026-05-04 01:18 | 35.44238 | -106.22893 | 36025 ft | 363 kts | 273° |
| 2026-05-04 01:18 | 35.44395 | -106.29084 | 36004 ft | 363 kts | 273° |
| 2026-05-04 01:19 | 35.44551 | -106.35284 | 35970 ft | 363 kts | 272° |
| 2026-05-04 01:19 | 35.44699 | -106.41470 | 35944 ft | 363 kts | 272° |
| 2026-05-04 01:20 | 35.44844 | -106.47663 | 35922 ft | 364 kts | 272° |
| 2026-05-04 01:20 | 35.44988 | -106.53868 | 35922 ft | 364 kts | 272° |
| 2026-05-04 01:21 | 35.45136 | -106.60071 | 35925 ft | 364 kts | 272° |
| 2026-05-04 01:21 | 35.45281 | -106.66231 | 35924 ft | 364 kts | 272° |
| 2026-05-04 01:22 | 35.45415 | -106.72465 | 35915 ft | 363 kts | 272° |
| 2026-05-04 01:22 | 35.45548 | -106.78628 | 35922 ft | 364 kts | 272° |
| 2026-05-04 01:23 | 35.45678 | -106.84829 | 35934 ft | 364 kts | 272° |
| 2026-05-04 01:23 | 35.45804 | -106.91026 | 35935 ft | 363 kts | 272° |
| 2026-05-04 01:24 | 35.45921 | -106.97230 | 35936 ft | 363 kts | 272° |
| 2026-05-04 01:24 | 35.46030 | -107.03427 | 35932 ft | 363 kts | 272° |
| 2026-05-04 01:25 | 35.46146 | -107.09619 | 35956 ft | 363 kts | 272° |
| 2026-05-04 01:25 | 35.46261 | -107.15803 | 35954 ft | 361 kts | 272° |
| 2026-05-04 01:26 | 35.46372 | -107.21962 | 35948 ft | 361 kts | 272° |
| 2026-05-04 01:26 | 35.46475 | -107.28096 | 35940 ft | 359 kts | 272° |
| 2026-05-04 01:27 | 35.46580 | -107.34179 | 35932 ft | 359 kts | 272° |
| 2026-05-04 01:27 | 35.46685 | -107.40312 | 35940 ft | 360 kts | 271° |
| 2026-05-04 01:28 | 35.46784 | -107.46445 | 35965 ft | 359 kts | 271° |
| 2026-05-04 01:28 | 35.46879 | -107.52571 | 35951 ft | 358 kts | 271° |
| 2026-05-04 01:29 | 35.46965 | -107.58681 | 35945 ft | 358 kts | 271° |
| 2026-05-04 01:29 | 35.47050 | -107.64783 | 35936 ft | 358 kts | 271° |
| 2026-05-04 01:30 | 35.47133 | -107.70886 | 35938 ft | 358 kts | 271° |
| 2026-05-04 01:30 | 35.47213 | -107.76984 | 35917 ft | 358 kts | 271° |
| 2026-05-04 01:31 | 35.47279 | -107.82063 | 35951 ft | 358 kts | 271° |
| 2026-05-04 01:31 | 35.47351 | -107.88179 | 35957 ft | 358 kts | 271° |
| 2026-05-04 01:32 | 35.47425 | -107.94288 | 35956 ft | 358 kts | 271° |
| 2026-05-04 01:32 | 35.47492 | -108.00403 | 35955 ft | 358 kts | 271° |
| 2026-05-04 01:33 | 35.47557 | -108.06520 | 35941 ft | 358 kts | 271° |
| 2026-05-04 01:33 | 35.47623 | -108.12629 | 35922 ft | 358 kts | 271° |
| 2026-05-04 01:34 | 35.47684 | -108.18745 | 35920 ft | 358 kts | 271° |
| 2026-05-04 01:34 | 35.47739 | -108.24858 | 35920 ft | 358 kts | 271° |
| 2026-05-04 01:35 | 35.47788 | -108.30973 | 35921 ft | 359 kts | 271° |
| 2026-05-04 01:35 | 35.47841 | -108.37093 | 35921 ft | 359 kts | 271° |
| 2026-05-04 01:36 | 35.47887 | -108.43177 | 35907 ft | 359 kts | 271° |
| 2026-05-04 01:36 | 35.47929 | -108.49298 | 35889 ft | 359 kts | 271° |
| 2026-05-04 01:37 | 35.47973 | -108.55435 | 35891 ft | 360 kts | 271° |
| 2026-05-04 01:37 | 35.48010 | -108.61586 | 35880 ft | 360 kts | 271° |
| 2026-05-04 01:38 | 35.48047 | -108.67732 | 35885 ft | 360 kts | 271° |
| 2026-05-04 01:38 | 35.48083 | -108.73888 | 35873 ft | 361 kts | 271° |
| 2026-05-04 01:38 | 35.48099 | -108.76965 | 36081 ft | 361 kts | 271° |
| 2026-05-04 01:39 | 35.48113 | -108.80001 | 36055 ft | 361 kts | 271° |
| 2026-05-04 01:39 | 35.48134 | -108.86169 | 36058 ft | 362 kts | 271° |
| 2026-05-04 01:40 | 35.48160 | -108.92352 | 36076 ft | 363 kts | 270° |
| 2026-05-04 01:40 | 35.48175 | -108.98535 | 36042 ft | 363 kts | 270° |
| 2026-05-04 01:41 | 35.48191 | -109.04720 | 36041 ft | 363 kts | 270° |
| 2026-05-04 01:41 | 35.48204 | -109.10908 | 36039 ft | 363 kts | 270° |
| 2026-05-04 01:42 | 35.48209 | -109.17096 | 36024 ft | 362 kts | 270° |
| 2026-05-04 01:42 | 35.48223 | -109.23285 | 36009 ft | 363 kts | 270° |
| 2026-05-04 01:43 | 35.48230 | -109.29474 | 35982 ft | 363 kts | 270° |
| 2026-05-04 01:43 | 35.48232 | -109.35670 | 35960 ft | 363 kts | 270° |
| 2026-05-04 01:44 | 35.48230 | -109.41861 | 35927 ft | 363 kts | 270° |
| 2026-05-04 01:44 | 35.48228 | -109.48051 | 35892 ft | 363 kts | 270° |
| 2026-05-04 01:45 | 35.48215 | -109.54244 | 35880 ft | 363 kts | 270° |
| 2026-05-04 01:45 | 35.48194 | -109.63549 | 35882 ft | 364 kts | 270° |
| 2026-05-04 01:46 | 35.48177 | -109.69759 | 35869 ft | 364 kts | 270° |
| 2026-05-04 01:46 | 35.48153 | -109.75969 | 35883 ft | 364 kts | 270° |
| 2026-05-04 01:47 | 35.48132 | -109.82142 | 35856 ft | 364 kts | 270° |
| 2026-05-04 01:47 | 35.48108 | -109.88362 | 35857 ft | 365 kts | 270° |
| 2026-05-04 01:48 | 35.48080 | -109.94587 | 35857 ft | 365 kts | 270° |
| 2026-05-04 01:48 | 35.48048 | -110.00821 | 35858 ft | 365 kts | 270° |
| 2026-05-04 01:49 | 35.48004 | -110.07062 | 35852 ft | 366 kts | 270° |
| 2026-05-04 01:49 | 35.47968 | -110.13301 | 35854 ft | 366 kts | 270° |
| 2026-05-04 01:50 | 35.47926 | -110.19544 | 35869 ft | 365 kts | 269° |
| 2026-05-04 01:50 | 35.47878 | -110.25727 | 35864 ft | 364 kts | 269° |
| 2026-05-04 01:51 | 35.47827 | -110.31937 | 35893 ft | 364 kts | 269° |
| 2026-05-04 01:51 | 35.47781 | -110.38155 | 35872 ft | 364 kts | 269° |
| 2026-05-04 01:52 | 35.47725 | -110.44362 | 35865 ft | 364 kts | 269° |
| 2026-05-04 01:52 | 35.47666 | -110.50570 | 35845 ft | 364 kts | 269° |
| 2026-05-04 01:53 | 35.47611 | -110.56779 | 35844 ft | 364 kts | 269° |
| 2026-05-04 01:53 | 35.47548 | -110.62983 | 35836 ft | 364 kts | 269° |
| 2026-05-04 01:54 | 35.47475 | -110.69182 | 35835 ft | 364 kts | 269° |
| 2026-05-04 01:54 | 35.47405 | -110.75384 | 35829 ft | 363 kts | 269° |
| 2026-05-04 01:55 | 35.47327 | -110.81584 | 35824 ft | 363 kts | 269° |
| 2026-05-04 01:55 | 35.47250 | -110.87741 | 35827 ft | 363 kts | 268° |
| 2026-05-04 01:56 | 35.47173 | -110.93938 | 35822 ft | 363 kts | 268° |
| 2026-05-04 01:56 | 35.47088 | -111.00127 | 35823 ft | 363 kts | 268° |
| 2026-05-04 01:57 | 35.47000 | -111.06317 | 35830 ft | 363 kts | 268° |
| 2026-05-04 01:57 | 35.46913 | -111.12504 | 35831 ft | 362 kts | 268° |
| 2026-05-04 01:58 | 35.46821 | -111.18687 | 35821 ft | 363 kts | 268° |
| 2026-05-04 01:58 | 35.46724 | -111.24878 | 35825 ft | 363 kts | 268° |
| 2026-05-04 01:59 | 35.46618 | -111.31073 | 35846 ft | 363 kts | 268° |
| 2026-05-04 01:59 | 35.46515 | -111.37226 | 35851 ft | 363 kts | 268° |
| 2026-05-04 02:00 | 35.46412 | -111.43424 | 35878 ft | 363 kts | 268° |
| 2026-05-04 02:00 | 35.46303 | -111.49629 | 35869 ft | 364 kts | 268° |
| 2026-05-04 02:01 | 35.46194 | -111.55827 | 35895 ft | 364 kts | 268° |
| 2026-05-04 02:01 | 35.46083 | -111.62025 | 35900 ft | 363 kts | 268° |
| 2026-05-04 02:02 | 35.45964 | -111.68216 | 35900 ft | 363 kts | 268° |
| 2026-05-04 02:02 | 35.45840 | -111.74401 | 35935 ft | 363 kts | 268° |
| 2026-05-04 02:03 | 35.45714 | -111.80595 | 35935 ft | 363 kts | 268° |
| 2026-05-04 02:03 | 35.45689 | -111.86795 | 35953 ft | 364 kts | 274° |
| 2026-05-04 02:04 | 35.46456 | -111.92961 | 35977 ft | 366 kts | 276° |
| 2026-05-04 02:04 | 35.47231 | -111.99086 | 36001 ft | 366 kts | 276° |
| 2026-05-04 02:05 | 35.48003 | -112.05254 | 36017 ft | 366 kts | 276° |
| 2026-05-04 02:05 | 35.48775 | -112.11421 | 36025 ft | 366 kts | 276° |
| 2026-05-04 02:06 | 35.49549 | -112.17588 | 36043 ft | 365 kts | 276° |
| 2026-05-04 02:06 | 35.50320 | -112.23740 | 36033 ft | 364 kts | 275° |
| 2026-05-04 02:07 | 35.51077 | -112.29873 | 36018 ft | 363 kts | 275° |
| 2026-05-04 02:07 | 35.51821 | -112.35998 | 35987 ft | 362 kts | 275° |
| 2026-05-04 02:08 | 35.52563 | -112.42119 | 35958 ft | 362 kts | 275° |
| 2026-05-04 02:08 | 35.53308 | -112.48229 | 35925 ft | 362 kts | 275° |
| 2026-05-04 02:09 | 35.54047 | -112.54283 | 35923 ft | 361 kts | 275° |
| 2026-05-04 02:09 | 35.54782 | -112.60378 | 35887 ft | 361 kts | 275° |
| 2026-05-04 02:10 | 35.55515 | -112.66490 | 35880 ft | 362 kts | 275° |
| 2026-05-04 02:10 | 35.56251 | -112.72616 | 35864 ft | 363 kts | 275° |
| 2026-05-04 02:11 | 35.56982 | -112.78753 | 35857 ft | 363 kts | 275° |
| 2026-05-04 02:11 | 35.57708 | -112.84887 | 35832 ft | 363 kts | 275° |
| 2026-05-04 02:12 | 35.58071 | -112.87956 | 35573 ft | 362 kts | 275° |
| 2026-05-04 02:12 | 35.58431 | -112.91015 | 35205 ft | 363 kts | 275° |
| 2026-05-04 02:12 | 35.58794 | -112.94116 | 34342 ft | 370 kts | 275° |
| 2026-05-04 02:12 | 35.59166 | -112.97278 | 33380 ft | 377 kts | 275° |
| 2026-05-04 02:13 | 35.59546 | -113.00498 | 32383 ft | 384 kts | 275° |
| 2026-05-04 02:13 | 35.59927 | -113.03746 | 31786 ft | 382 kts | 275° |
| 2026-05-04 02:13 | 35.60305 | -113.06967 | 31204 ft | 379 kts | 275° |
| 2026-05-04 02:13 | 35.60679 | -113.10166 | 30612 ft | 377 kts | 275° |
| 2026-05-04 02:14 | 35.61048 | -113.13347 | 30013 ft | 375 kts | 275° |
| 2026-05-04 02:14 | 35.61412 | -113.16507 | 29373 ft | 372 kts | 275° |
| 2026-05-04 02:14 | 35.61771 | -113.19631 | 28826 ft | 367 kts | 275° |
| 2026-05-04 02:14 | 35.62126 | -113.22723 | 28282 ft | 363 kts | 275° |
| 2026-05-04 02:15 | 35.62479 | -113.25770 | 27740 ft | 358 kts | 275° |
| 2026-05-04 02:15 | 35.62830 | -113.28787 | 27217 ft | 355 kts | 274° |
| 2026-05-04 02:15 | 35.63060 | -113.30771 | 26870 ft | 353 kts | 274° |
| 2026-05-04 02:15 | 35.63516 | -113.34740 | 26198 ft | 348 kts | 274° |
| 2026-05-04 02:16 | 35.63737 | -113.36682 | 25851 ft | 345 kts | 274° |
| 2026-05-04 02:16 | 35.64175 | -113.40527 | 25227 ft | 339 kts | 274° |
| 2026-05-04 02:16 | 35.64498 | -113.43383 | 24764 ft | 335 kts | 274° |
| 2026-05-04 02:16 | 35.64714 | -113.45293 | 24468 ft | 332 kts | 274° |
| 2026-05-04 02:17 | 35.65132 | -113.48974 | 23901 ft | 326 kts | 274° |
| 2026-05-04 02:17 | 35.65361 | -113.50831 | 23610 ft | 324 kts | 275° |
| 2026-05-04 02:17 | 35.65772 | -113.53591 | 23248 ft | 333 kts | 276° |
| 2026-05-04 02:17 | 35.66238 | -113.56401 | 22835 ft | 336 kts | 277° |
| 2026-05-04 02:18 | 35.66718 | -113.59183 | 22468 ft | 338 kts | 277° |
| 2026-05-04 02:18 | 35.67207 | -113.62010 | 22102 ft | 338 kts | 277° |
| 2026-05-04 02:18 | 35.67696 | -113.64878 | 21710 ft | 338 kts | 277° |
| 2026-05-04 02:18 | 35.68166 | -113.67676 | 21333 ft | 339 kts | 277° |
| 2026-05-04 02:19 | 35.68636 | -113.70524 | 20962 ft | 339 kts | 277° |
| 2026-05-04 02:19 | 35.69101 | -113.73370 | 20594 ft | 340 kts | 277° |
| 2026-05-04 02:19 | 35.69562 | -113.76218 | 20209 ft | 340 kts | 277° |
| 2026-05-04 02:19 | 35.70023 | -113.79075 | 19834 ft | 340 kts | 277° |
| 2026-05-04 02:20 | 35.70483 | -113.81931 | 19452 ft | 341 kts | 277° |
| 2026-05-04 02:20 | 35.70945 | -113.84795 | 19086 ft | 342 kts | 277° |
| 2026-05-04 02:20 | 35.71410 | -113.87672 | 18699 ft | 343 kts | 277° |
| 2026-05-04 02:20 | 35.71875 | -113.90551 | 18315 ft | 344 kts | 277° |
| 2026-05-04 02:21 | 35.72341 | -113.93450 | 17911 ft | 347 kts | 277° |
| 2026-05-04 02:21 | 35.72808 | -113.96368 | 17511 ft | 347 kts | 277° |
| 2026-05-04 02:21 | 35.73274 | -113.99284 | 17252 ft | 347 kts | 277° |
| 2026-05-04 02:21 | 35.73743 | -114.02202 | 16962 ft | 347 kts | 277° |
| 2026-05-04 02:22 | 35.74212 | -114.05112 | 16592 ft | 346 kts | 277° |
| 2026-05-04 02:22 | 35.74679 | -114.08013 | 16234 ft | 343 kts | 277° |
| 2026-05-04 02:22 | 35.75138 | -114.10839 | 16097 ft | 331 kts | 276° |
| 2026-05-04 02:22 | 35.75580 | -114.13567 | 15962 ft | 319 kts | 277° |
| 2026-05-04 02:23 | 35.76247 | -114.16157 | 15701 ft | 318 kts | 290° |
| 2026-05-04 02:23 | 35.77287 | -114.18553 | 15467 ft | 316 kts | 294° |
| 2026-05-04 02:23 | 35.78343 | -114.20924 | 15191 ft | 315 kts | 294° |
| 2026-05-04 02:23 | 35.79375 | -114.23253 | 14891 ft | 313 kts | 293° |
| 2026-05-04 02:24 | 35.80415 | -114.25604 | 14581 ft | 312 kts | 294° |
| 2026-05-04 02:24 | 35.81449 | -114.27951 | 14268 ft | 311 kts | 293° |
| 2026-05-04 02:24 | 35.82480 | -114.30295 | 13962 ft | 311 kts | 293° |
| 2026-05-04 02:24 | 35.83512 | -114.32638 | 13655 ft | 311 kts | 295° |
| 2026-05-04 02:25 | 35.84735 | -114.34849 | 13325 ft | 314 kts | 303° |
| 2026-05-04 02:25 | 35.86067 | -114.36977 | 13010 ft | 313 kts | 303° |
| 2026-05-04 02:25 | 35.87397 | -114.39094 | 12711 ft | 311 kts | 303° |
| 2026-05-04 02:25 | 35.88713 | -114.41195 | 12398 ft | 308 kts | 303° |
| 2026-05-04 02:26 | 35.90019 | -114.43285 | 12096 ft | 306 kts | 303° |
| 2026-05-04 02:26 | 35.91314 | -114.45363 | 11806 ft | 306 kts | 302° |
| 2026-05-04 02:26 | 35.92607 | -114.47440 | 11512 ft | 304 kts | 303° |
| 2026-05-04 02:26 | 35.93895 | -114.49504 | 11218 ft | 303 kts | 303° |
| 2026-05-04 02:27 | 35.95176 | -114.51562 | 10927 ft | 302 kts | 303° |
| 2026-05-04 02:27 | 35.96453 | -114.53615 | 10637 ft | 301 kts | 302° |
| 2026-05-04 02:27 | 35.97721 | -114.55665 | 10353 ft | 300 kts | 301° |
| 2026-05-04 02:27 | 35.98982 | -114.57712 | 10070 ft | 298 kts | 302° |
| 2026-05-04 02:28 | 36.00236 | -114.59754 | 9793 ft | 298 kts | 302° |
| 2026-05-04 02:28 | 36.01483 | -114.61786 | 9483 ft | 294 kts | 302° |
| 2026-05-04 02:28 | 36.02712 | -114.63786 | 9193 ft | 290 kts | 302° |
| 2026-05-04 02:28 | 36.03902 | -114.65776 | 8910 ft | 284 kts | 296° |
| 2026-05-04 02:29 | 36.04919 | -114.67838 | 8628 ft | 279 kts | 294° |
| 2026-05-04 02:29 | 36.05903 | -114.69843 | 8358 ft | 274 kts | 295° |
| 2026-05-04 02:29 | 36.06839 | -114.71846 | 8089 ft | 263 kts | 287° |
| 2026-05-04 02:29 | 36.07307 | -114.73961 | 7817 ft | 250 kts | 269° |
| 2026-05-04 02:30 | 36.07335 | -114.76068 | 7520 ft | 243 kts | 263° |
| 2026-05-04 02:30 | 36.07333 | -114.78149 | 7252 ft | 241 kts | 264° |
| 2026-05-04 02:30 | 36.07335 | -114.80213 | 6940 ft | 240 kts | 264° |
| 2026-05-04 02:30 | 36.07340 | -114.82253 | 6636 ft | 236 kts | 264° |
| 2026-05-04 02:31 | 36.07343 | -114.84254 | 6333 ft | 230 kts | 263° |
| 2026-05-04 02:31 | 36.07346 | -114.86196 | 6053 ft | 222 kts | 263° |
| 2026-05-04 02:31 | 36.07348 | -114.88069 | 5767 ft | 215 kts | 263° |
| 2026-05-04 02:31 | 36.07353 | -114.89900 | 5496 ft | 212 kts | 263° |
| 2026-05-04 02:32 | 36.07356 | -114.91716 | 5229 ft | 212 kts | 262° |
| 2026-05-04 02:32 | 36.07356 | -114.93508 | 4967 ft | 204 kts | 263° |
| 2026-05-04 02:32 | 36.07361 | -114.95225 | 4694 ft | 195 kts | 261° |
| 2026-05-04 02:32 | 36.07363 | -114.96870 | 4443 ft | 187 kts | 262° |
| 2026-05-04 02:33 | 36.07364 | -114.98436 | 4218 ft | 178 kts | 262° |
| 2026-05-04 02:33 | 36.07365 | -114.99938 | 4002 ft | 173 kts | 261° |
| 2026-05-04 02:33 | 36.07364 | -115.01411 | 3792 ft | 168 kts | 261° |
| 2026-05-04 02:33 | 36.07366 | -115.02808 | 3596 ft | 158 kts | 264° |
| 2026-05-04 02:34 | 36.07366 | -115.04142 | 3398 ft | 153 kts | 264° |
| 2026-05-04 02:34 | 36.07366 | -115.05431 | 3220 ft | 147 kts | 265° |
| 2026-05-04 02:34 | 36.07375 | -115.06688 | 3039 ft | 145 kts | 264° |
| 2026-05-04 02:34 | 36.07390 | -115.07909 | 2849 ft | 142 kts | 262° |
| 2026-05-04 02:35 | 36.07378 | -115.09141 | 2661 ft | 144 kts | 264° |
| 2026-05-04 02:35 | 36.07377 | -115.10366 | 2485 ft | 141 kts | 265° |
| 2026-05-04 02:35 | 36.07373 | -115.11574 | 2296 ft | 143 kts | 265° |
| 2026-05-04 02:35 | 36.07365 | -115.12787 | 2098 ft | 140 kts | 266° |
| 2026-05-04 02:36 | 36.07357 | -115.13915 | 2082 ft | 115 kts | 269° |
| 2026-05-04 02:36 | 36.07355 | -115.14573 | 2091 ft | 41 kts | 271° |
| 2026-05-04 02:36 | 36.07392 | -115.14858 | 2096 ft | 22 kts | 290° |
| 2026-05-04 02:36 | 36.07432 | -115.14966 | 2098 ft | 11 kts | 298° |
| 2026-05-04 02:37 | 36.07475 | -115.15053 | 2099 ft | 15 kts | 304° |
| 2026-05-04 02:37 | 36.07570 | -115.15154 | 2106 ft | 18 kts | 332° |
| 2026-05-04 02:37 | 36.07665 | -115.15211 | 2111 ft | 14 kts | 334° |
| 2026-05-04 02:37 | 36.07758 | -115.15265 | 2105 ft | 17 kts | 335° |
| 2026-05-04 02:38 | 36.07857 | -115.15290 | 2100 ft | 15 kts | 34° |
| 2026-05-04 02:38 | 36.07878 | -115.15173 | 2099 ft | 15 kts | 90° |
| 2026-05-04 02:38 | 36.07872 | -115.15021 | 2098 ft | 20 kts | 95° |
| 2026-05-04 02:38 | 36.07860 | -115.14834 | 2098 ft | 24 kts | 94° |
| 2026-05-04 02:39 | 36.07847 | -115.14628 | 2097 ft | 22 kts | 95° |
| 2026-05-04 02:39 | 36.07837 | -115.14489 | 2096 ft | 17 kts | 95° |
| 2026-05-04 02:39 | 36.07828 | -115.14323 | 2096 ft | 18 kts | 91° |
| 2026-05-04 02:39 | 36.07827 | -115.14181 | 2095 ft | 19 kts | 90° |
| 2026-05-04 02:40 | 36.07831 | -115.14036 | 2094 ft | 13 kts | 74° |
| 2026-05-04 02:40 | 36.07889 | -115.13947 | 2093 ft | 10 kts | 45° |
| 2026-05-04 02:40 | 36.07947 | -115.13880 | 2093 ft | 10 kts | 33° |
| 2026-05-04 02:40 | 36.08003 | -115.13914 | 2093 ft | 7 kts | 315° |
| 2026-05-04 02:41 | 36.08017 | -115.13931 | 2093 ft | 1 kts | 315° |
| 2026-05-04 02:41 | 36.08021 | -115.13935 | 2093 ft | 0 kts | 315° |
| 2026-05-04 02:41 | 36.08021 | -115.13936 | 2093 ft | 0 kts | 315° |